Time;durP1;ratioP1;P1;durP2;ratioP2;P2;SDS_P1;SDS_P2;PMS_P1;PMS_P2;Temp;Humidity;BMP_temperature;BMP_pressure;BME280_temperature;BME280_humidity;BME280_pressure;Samples;Min_cycle;Max_cycle;Signal;HPM_P1;HPM_P2
2024/01/12 00:02:07;;;;;;;14.43;8.15;;;;;;;-2.06;72.41;101231.41;31580111;27;97072;-63
2024/01/12 00:17:07;;;;;;;14.32;7.63;;;;;;;-2.00;72.05;101239.91;31577058;27;125365;-62
2024/01/12 00:32:08;;;;;;;14.38;7.05;;;;;;;-1.97;72.12;101260.66;31558733;27;107288;-62
2024/01/12 00:47:08;;;;;;;11.90;7.50;;;;;;;-1.88;72.72;101275.97;31541015;27;1103755;-62
2024/01/12 01:02:08;;;;;;;14.63;7.70;;;;;;;-1.78;73.03;101274.66;31579919;27;126781;-62
2024/01/12 01:17:09;;;;;;;16.05;7.53;;;;;;;-1.73;72.58;101280.53;31580324;27;125535;-59
2024/01/12 01:32:09;;;;;;;14.68;8.32;;;;;;;-1.75;72.36;101269.31;31582659;27;97207;-60
2024/01/12 01:47:10;;;;;;;20.42;9.43;;;;;;;-1.67;73.17;101273.34;31590671;27;126969;-61
2024/01/12 02:02:11;;;;;;;17.45;8.90;;;;;;;-1.71;73.00;101277.84;31601909;27;98498;-60
2024/01/12 02:17:11;;;;;;;16.77;9.27;;;;;;;-1.56;72.86;101282.44;31601008;27;97053;-59
2024/01/12 02:32:11;;;;;;;20.08;8.88;;;;;;;-1.56;73.37;101281.59;31597649;27;126784;-59
2024/01/12 02:47:13;;;;;;;17.38;8.55;;;;;;;-1.55;72.85;101278.91;31538635;27;124537;-62
2024/01/12 03:02:13;;;;;;;22.48;8.77;;;;;;;-1.48;73.24;101284.72;31520519;27;97158;-59
2024/01/12 03:17:13;;;;;;;17.25;8.35;;;;;;;-1.44;73.37;101275.81;31486037;27;102041;-59
2024/01/12 03:32:13;;;;;;;18.00;9.70;;;;;;;-1.42;73.59;101267.91;31485126;27;126709;-60
2024/01/12 03:47:14;;;;;;;19.63;8.68;;;;;;;-1.32;73.77;101261.38;31749706;27;125484;-62
2024/01/12 04:02:14;;;;;;;20.83;8.30;;;;;;;-1.22;73.91;101261.81;32129248;27;40883;-62
2024/01/12 04:17:14;;;;;;;21.33;10.68;;;;;;;-1.16;73.78;101264.19;32126332;27;20420;-61
2024/01/12 04:32:15;;;;;;;24.98;10.32;;;;;;;-1.17;73.81;101283.41;32125980;27;28626;-59
2024/01/12 04:47:15;;;;;;;22.85;9.40;;;;;;;-1.11;74.11;101293.56;32124091;27;43315;-61
2024/01/12 05:02:15;;;;;;;21.70;9.48;;;;;;;-1.10;74.34;101284.81;32121347;27;22499;-61
2024/01/12 05:17:15;;;;;;;20.98;9.57;;;;;;;-1.07;74.32;101289.91;32115331;27;20075;-62
2024/01/12 05:32:16;;;;;;;23.13;9.73;;;;;;;-1.06;74.48;101291.59;32144031;27;41721;-62
2024/01/12 05:47:16;;;;;;;25.55;9.85;;;;;;;-1.02;74.25;101324.56;32144414;27;41737;-59
2024/01/12 06:02:16;;;;;;;21.55;10.43;;;;;;;-1.02;74.66;101319.31;32141325;27;41568;-61
2024/01/12 06:17:16;;;;;;;18.35;8.73;;;;;;;-0.94;74.88;101323.38;32141652;27;20391;-63
2024/01/12 06:32:17;;;;;;;20.45;7.75;;;;;;;-0.88;74.55;101316.09;32140302;27;42826;-61
2024/01/12 06:47:17;;;;;;;14.52;6.53;;;;;;;-0.86;74.34;101323.91;32138694;27;20039;-62
2024/01/12 07:02:18;;;;;;;13.30;6.78;;;;;;;-0.84;73.88;101352.59;32136467;27;42799;-59
2024/01/12 07:17:20;;;;;;;14.20;6.35;;;;;;;-0.79;73.98;101335.78;32136999;27;20060;-59
2024/01/12 07:32:20;;;;;;;11.48;6.32;;;;;;;-0.78;73.45;101347.94;32134105;27;20429;-62
2024/01/12 07:47:20;;;;;;;17.20;8.32;;;;;;;-0.68;73.44;101333.50;32128567;27;42828;-60
2024/01/12 08:02:20;;;;;;;16.75;6.90;;;;;;;-0.63;73.57;101328.09;32129453;27;20030;-59
2024/01/12 08:17:21;;;;;;;17.10;7.82;;;;;;;-0.37;73.17;101316.41;32129161;27;27290;-61
2024/01/12 08:32:21;;;;;;;19.00;9.48;;;;;;;-0.26;72.99;101317.66;32130151;27;20038;-62
2024/01/12 08:47:21;;;;;;;18.25;8.07;;;;;;;-0.28;72.97;101319.50;32125415;27;41566;-59
2024/01/12 09:02:21;;;;;;;20.60;8.68;;;;;;;-0.20;73.06;101312.97;32146127;27;43074;-60
2024/01/12 09:17:22;;;;;;;21.40;8.95;;;;;;;-0.48;72.85;101310.81;32147814;27;41233;-59
2024/01/12 09:32:22;;;;;;;20.50;8.45;;;;;;;-0.62;73.06;101310.59;32142579;27;42620;-58
2024/01/12 09:47:23;;;;;;;17.60;7.70;;;;;;;-0.69;73.30;101318.72;32143385;27;20043;-59
2024/01/12 10:02:23;;;;;;;11.15;6.15;;;;;;;-0.64;73.30;101310.69;32142537;27;36782;-60
2024/01/12 10:17:23;;;;;;;13.48;6.30;;;;;;;-0.21;73.61;101305.19;32142731;27;21324;-59
2024/01/12 10:32:24;;;;;;;15.38;5.70;;;;;;;-0.18;72.50;101302.41;32139088;27;43604;-61
2024/01/12 10:47:32;;;;;;;12.05;5.72;;;;;;;-0.03;72.52;101301.69;32137581;27;20039;-61
2024/01/12 11:02:33;;;;;;;12.98;7.15;;;;;;;0.10;72.42;101269.66;32139155;27;20027;-62
2024/01/12 11:17:35;;;;;;;9.98;4.80;;;;;;;0.35;71.96;101256.16;32135530;27;20857;-59
2024/01/12 11:32:37;;;;;;;14.57;7.18;;;;;;;0.37;71.22;101216.75;32132202;27;20038;-60
2024/01/12 11:47:42;;;;;;;10.30;6.05;;;;;;;0.22;71.40;101187.81;32131479;27;20043;-61
2024/01/12 12:02:42;;;;;;;8.60;5.47;;;;;;;0.32;71.47;101165.41;32131771;27;20062;-62
2024/01/12 12:17:46;;;;;;;12.55;5.70;;;;;;;0.41;70.63;101126.53;32129982;27;30165;-61
2024/01/12 12:32:47;;;;;;;9.90;5.30;;;;;;;0.06;70.85;101139.72;32126580;27;20035;-60
2024/01/12 12:47:47;;;;;;;9.73;5.05;;;;;;;0.05;70.59;101112.66;32126898;27;20075;-61
2024/01/12 13:02:47;;;;;;;9.75;5.50;;;;;;;-0.16;70.72;101138.22;32127501;27;20026;-60
2024/01/12 13:17:48;;;;;;;10.45;5.70;;;;;;;-0.41;70.89;101092.31;32126159;27;20503;-59
2024/01/12 13:32:48;;;;;;;9.57;5.40;;;;;;;-0.36;70.76;101098.13;32121752;27;41649;-60
2024/01/12 13:47:48;;;;;;;9.63;6.13;;;;;;;-0.36;70.58;101086.84;32140809;27;30222;-61
2024/01/12 14:02:49;;;;;;;11.52;4.60;;;;;;;-0.48;70.61;101080.44;32142430;27;42995;-60
2024/01/12 14:17:49;;;;;;;12.70;6.80;;;;;;;-0.54;70.58;101078.13;32141099;27;20045;-63
2024/01/12 14:32:50;;;;;;;16.25;6.78;;;;;;;-0.61;70.56;101059.28;32139463;27;20026;-60
2024/01/12 14:47:50;;;;;;;11.00;5.47;;;;;;;-0.65;70.75;101059.53;32136393;27;20039;-58
2024/01/12 15:02:51;;;;;;;10.02;5.38;;;;;;;-0.64;70.43;101048.97;32137503;27;21251;-59
2024/01/12 15:17:51;;;;;;;10.88;4.63;;;;;;;-0.71;70.32;101050.19;32135222;27;29653;-60
2024/01/12 15:32:52;;;;;;;12.13;7.15;;;;;;;-0.72;70.36;101035.44;32134567;27;20042;-60
2024/01/12 15:47:53;;;;;;;10.60;6.97;;;;;;;-0.86;70.54;101017.81;32133384;27;20042;-60
2024/01/12 16:02:53;;;;;;;8.80;4.60;;;;;;;-0.88;70.62;101017.03;32131555;27;20090;-61
2024/01/12 16:17:53;;;;;;;8.63;4.25;;;;;;;-0.92;70.11;101025.94;32132099;27;20045;-60
2024/01/12 16:32:54;;;;;;;6.70;4.30;;;;;;;-0.95;70.32;101006.00;32131016;27;20035;-63
2024/01/12 16:47:54;;;;;;;9.32;5.47;;;;;;;-1.03;70.38;100977.59;32126833;27;20095;-58
2024/01/12 17:02:54;;;;;;;8.35;4.93;;;;;;;-1.05;69.96;100989.09;32125490;27;40689;-62
2024/01/12 17:17:54;;;;;;;6.40;4.43;;;;;;;-1.05;70.23;100974.25;32135575;27;30021;-60
2024/01/12 17:32:55;;;;;;;8.45;5.10;;;;;;;-1.06;70.13;100943.78;32143895;27;41386;-60
2024/01/12 17:47:56;;;;;;;8.00;5.07;;;;;;;-1.04;70.17;100921.00;32143296;27;20333;-61
2024/01/12 18:02:56;;;;;;;10.93;6.18;;;;;;;-1.04;70.30;100941.94;32143149;27;41527;-58
2024/01/12 18:17:56;;;;;;;9.20;5.03;;;;;;;-0.92;70.84;100950.09;32140913;27;43069;-62
2024/01/12 18:32:56;;;;;;;10.98;4.93;;;;;;;-0.91;70.80;100918.59;32139489;27;41378;-63
2024/01/12 18:47:57;;;;;;;10.45;5.43;;;;;;;-0.94;70.91;100892.63;32136815;27;33529;-60
2024/01/12 19:02:58;;;;;;;8.55;4.93;;;;;;;-0.94;71.17;100902.25;32136753;27;20555;-62
2024/01/12 19:17:59;;;;;;;9.57;6.25;;;;;;;-0.88;71.69;100886.22;32135973;27;20122;-60
2024/01/12 19:32:59;;;;;;;16.67;8.23;;;;;;;-0.81;72.04;100886.75;32132673;27;20451;-60
2024/01/12 19:47:59;;;;;;;17.00;7.82;;;;;;;-0.73;72.15;100874.94;32135039;27;20787;-62
2024/01/12 20:03:00;;;;;;;12.02;6.60;;;;;;;-0.65;72.04;100871.09;32133884;27;41369;-62
2024/01/12 20:18:00;;;;;;;16.20;7.85;;;;;;;-0.57;72.38;100854.06;32129429;27;40796;-63
2024/01/12 20:33:00;;;;;;;11.93;6.95;;;;;;;-0.58;72.47;100852.34;32128593;27;20352;-62
2024/01/12 20:48:01;;;;;;;14.85;7.57;;;;;;;-0.55;73.30;100854.84;32132243;27;20071;-63
2024/01/12 21:03:01;;;;;;;12.15;6.50;;;;;;;-0.58;73.42;100844.50;32150368;27;20163;-63
2024/01/12 21:18:01;;;;;;;12.60;6.38;;;;;;;-0.66;73.68;100810.06;32147428;27;23658;-62
2024/01/12 21:33:02;;;;;;;13.40;5.68;;;;;;;-0.68;73.85;100791.81;32148606;27;20075;-59
2024/01/12 21:48:02;;;;;;;10.20;5.78;;;;;;;-0.66;73.91;100798.75;32147900;27;20038;-62
2024/01/12 22:03:03;;;;;;;10.48;5.60;;;;;;;-0.61;73.76;100813.28;32144931;27;20030;-60
2024/01/12 22:18:03;;;;;;;12.82;5.60;;;;;;;-0.60;73.72;100787.94;32144139;27;20031;-63
2024/01/12 22:33:04;;;;;;;13.57;7.15;;;;;;;-0.55;73.92;100757.13;32143607;27;20122;-61
2024/01/12 22:48:05;;;;;;;12.25;6.80;;;;;;;-0.55;74.02;100720.50;32140685;27;20038;-62
2024/01/12 23:03:06;;;;;;;9.43;6.18;;;;;;;-0.58;74.11;100715.44;32142106;27;20030;-62
2024/01/12 23:18:07;;;;;;;10.25;6.05;;;;;;;-0.56;74.23;100700.47;32139325;27;20272;-59
2024/01/12 23:33:07;;;;;;;12.15;5.88;;;;;;;-0.51;74.17;100701.06;32136869;27;20053;-61
2024/01/12 23:48:07;;;;;;;14.40;6.07;;;;;;;-0.40;74.40;100682.97;32135079;27;43158;-62
